Terminal Aerodrome Forecast
Issued by NWS Kansas City/Pleasant Hill, MO

Home | Current Version | Previous Version | Text Only | Print | Product List | Glossary On
Versions: 1 2 3 4 5 6 7 8 9 10 11 12 13 14 15 16 17 18 19
884
FTUS43 KEAX 151127
TAFMCI
TAF
KMCI 151127Z 1512/1612 07005KT 5SM -FZDZ FEW009 SCT019 OVC035
     FM151300 VRB05KT 3SM -FZRA BR OVC008
     FM152000 VRB05KT P6SM -RA OVC005
     FM160000 VRB05KT 6SM BR VCSH OVC003
     FM160300 09006KT 2SM BR VCSH OVC003=

USA.gov is the U.S. government's official web portal to all federal, state and local government web resources and services.